Time;durP1;ratioP1;P1;durP2;ratioP2;P2;SDS_P1;SDS_P2;PMS_P1;PMS_P2;Temp;Humidity;BMP_temperature;BMP_pressure;BME280_temperature;BME280_humidity;BME280_pressure;Samples;Min_cycle;Max_cycle;Signal;HPM_P1;HPM_P2
2022/07/03 00:00:18;;;;;;;;;;;;;;;19.09;64.28;99975.84;4939228;29;19923;-72
2022/07/03 00:02:47;;;;;;;;;;;;;;;19.02;64.35;99980.34;4939464;29;19954;-72
2022/07/03 00:05:15;;;;;;;;;;;;;;;18.94;64.62;99981.47;4939191;29;19923;-72
2022/07/03 00:07:44;;;;;;;;;;;;;;;18.81;64.94;99974.97;4939065;29;19929;-72
2022/07/03 00:10:14;;;;;;;;;;;;;;;18.77;65.10;99973.34;4939039;29;19970;-71
2022/07/03 00:12:43;;;;;;;;;;;;;;;18.77;64.97;99968.19;4939381;29;19923;-72
2022/07/03 00:15:12;;;;;;;;;;;;;;;18.79;64.78;99971.59;4938931;29;19922;-71
2022/07/03 00:17:40;;;;;;;;;;;;;;;18.73;64.65;99968.28;4939246;29;19923;-72
2022/07/03 00:20:09;;;;;;;;;;;;;;;18.72;64.59;99964.00;4939548;29;20429;-72
2022/07/03 00:22:42;;;;;;;;;;;;;;;18.66;64.94;99964.19;4938765;29;19922;-72
2022/07/03 00:25:13;;;;;;;;;;;;;;;18.58;65.11;99970.47;4938970;29;20009;-72
2022/07/03 00:27:44;;;;;;;;;;;;;;;18.53;65.50;99970.59;4938989;29;20337;-71
2022/07/03 00:30:13;;;;;;;;;;;;;;;18.50;65.61;99972.44;4938747;29;20388;-72
2022/07/03 00:32:42;;;;;;;;;;;;;;;18.47;65.67;99965.59;4938587;29;19923;-71
2022/07/03 00:35:16;;;;;;;;;;;;;;;18.44;65.87;99960.47;4938898;29;19966;-71
2022/07/03 00:37:46;;;;;;;;;;;;;;;18.37;65.91;99974.47;4938897;29;19944;-72
2022/07/03 00:40:14;;;;;;;;;;;;;;;18.25;66.07;99969.63;4938999;29;20385;-72
2022/07/03 00:42:46;;;;;;;;;;;;;;;18.20;66.12;99963.75;4938920;29;20246;-71
2022/07/03 00:45:17;;;;;;;;;;;;;;;18.20;66.20;99965.47;4938394;29;19930;-72
2022/07/03 00:47:45;;;;;;;;;;;;;;;18.24;66.30;99956.72;4938956;29;19929;-72
2022/07/03 00:50:14;;;;;;;;;;;;;;;18.25;66.14;99959.31;4938334;29;19922;-72
2022/07/03 00:52:46;;;;;;;;;;;;;;;17.99;66.55;99960.00;4938246;29;19923;-71
2022/07/03 00:55:16;;;;;;;;;;;;;;;17.76;67.21;99953.72;4938274;29;19923;-72
2022/07/03 00:57:48;;;;;;;;;;;;;;;17.76;67.90;99953.72;4938292;29;19923;-72
2022/07/03 01:00:17;;;;;;;;;;;;;;;17.83;67.83;99947.50;4938193;29;19923;-72
2022/07/03 01:02:50;;;;;;;;;;;;;;;17.95;67.68;99936.84;4938038;29;19929;-72
2022/07/03 01:05:26;;;;;;;;;;;;;;;17.99;67.34;99941.06;4938096;29;19923;-72
2022/07/03 01:08:02;;;;;;;;;;;;;;;17.98;67.19;99934.19;4938051;29;19922;-72
2022/07/03 01:10:36;;;;;;;;;;;;;;;17.95;67.35;99927.38;4938283;29;19946;-73
2022/07/03 01:13:09;;;;;;;;;;;;;;;17.94;67.73;99923.13;4938188;29;20025;-71
2022/07/03 01:15:42;;;;;;;;;;;;;;;18.01;68.00;99923.78;4938227;29;19961;-72
2022/07/03 01:18:18;;;;;;;;;;;;;;;18.03;68.15;99925.44;4938540;29;19922;-72
2022/07/03 01:20:53;;;;;;;;;;;;;;;17.96;68.15;99931.66;4938102;29;19922;-72
2022/07/03 01:23:26;;;;;;;;;;;;;;;18.00;68.36;99927.25;4938013;29;19973;-72
2022/07/03 01:25:56;;;;;;;;;;;;;;;18.05;68.05;99930.56;4937822;29;19950;-72
2022/07/03 01:28:25;;;;;;;;;;;;;;;18.01;67.97;99919.47;4937626;29;19929;-72
2022/07/03 01:30:55;;;;;;;;;;;;;;;17.92;68.00;99918.88;4937848;29;20006;-73
2022/07/03 01:33:24;;;;;;;;;;;;;;;17.90;68.10;99920.66;4937506;29;19922;-71
2022/07/03 01:35:59;;;;;;;;;;;;;;;17.79;68.30;99918.34;4937590;29;19958;-72
2022/07/03 01:38:28;;;;;;;;;;;;;;;17.76;68.72;99927.91;4937511;29;19974;-72
2022/07/03 01:40:58;;;;;;;;;;;;;;;17.79;68.67;99922.66;4937401;29;19923;-72
2022/07/03 01:43:29;;;;;;;;;;;;;;;17.83;68.50;99916.53;4937719;29;20292;-71
2022/07/03 01:45:58;;;;;;;;;;;;;;;17.83;68.48;99906.19;4937138;29;20017;-72
2022/07/03 01:48:28;;;;;;;;;;;;;;;17.85;68.19;99900.09;4937560;29;19922;-72
2022/07/03 01:50:57;;;;;;;;;;;;;;;17.84;68.05;99897.56;4937267;29;19970;-72
2022/07/03 01:53:26;;;;;;;;;;;;;;;17.81;68.15;99900.22;4937427;29;19930;-72
2022/07/03 01:55:56;;;;;;;;;;;;;;;17.71;68.15;99893.59;4937053;29;19922;-71
2022/07/03 01:58:26;;;;;;;;;;;;;;;17.60;68.44;99885.28;4937050;29;20002;-71
2022/07/03 02:01:02;;;;;;;;;;;;;;;17.52;68.99;99892.38;4937089;29;19922;-72
2022/07/03 02:03:32;;;;;;;;;;;;;;;17.54;69.09;99898.38;4937120;29;19923;-72
2022/07/03 02:06:06;;;;;;;;;;;;;;;17.58;69.14;99902.56;4919992;29;19923;-72
2022/07/03 02:08:44;;;;;;;;;;;;;;;17.61;69.07;99913.66;4937329;29;20401;-72
2022/07/03 02:11:35;;;;;;;;;;;;;;;17.62;68.92;99920.50;4936521;29;19923;-72
2022/07/03 02:14:11;;;;;;;;;;;;;;;17.59;68.86;99910.25;4937297;29;19966;-71
2022/07/03 02:16:45;;;;;;;;;;;;;;;17.59;69.21;99904.28;4936867;29;20022;-72
2022/07/03 02:19:15;;;;;;;;;;;;;;;17.64;69.14;99907.56;4936893;29;20022;-72
2022/07/03 02:21:48;;;;;;;;;;;;;;;17.68;69.13;99914.34;4936876;29;20389;-72
2022/07/03 02:24:20;;;;;;;;;;;;;;;17.65;69.14;99911.84;4936807;29;20058;-71
2022/07/03 02:26:54;;;;;;;;;;;;;;;17.48;69.32;99919.13;4936979;29;20387;-72
2022/07/03 02:29:32;;;;;;;;;;;;;;;17.28;69.80;99930.78;4936778;29;19950;-71
2022/07/03 02:32:03;;;;;;;;;;;;;;;17.19;70.04;99940.47;4920034;29;20349;-72
2022/07/03 02:34:33;;;;;;;;;;;;;;;17.09;70.40;99945.00;4937038;29;20292;-72
2022/07/03 02:37:07;;;;;;;;;;;;;;;17.00;70.25;99941.78;4936890;29;19922;-72
2022/07/03 02:39:39;;;;;;;;;;;;;;;16.88;70.93;99930.00;4936754;29;19923;-72
2022/07/03 02:42:13;;;;;;;;;;;;;;;16.94;70.86;99923.88;4936951;29;19951;-72
2022/07/03 02:44:46;;;;;;;;;;;;;;;17.03;70.50;99919.38;4936687;29;20017;-73
2022/07/03 02:47:18;;;;;;;;;;;;;;;17.09;70.13;99914.03;4936430;29;19929;-72
2022/07/03 02:49:51;;;;;;;;;;;;;;;17.15;69.62;99913.91;4936623;29;20017;-72
2022/07/03 02:52:25;;;;;;;;;;;;;;;17.16;69.44;99914.75;4936627;29;19927;-72
2022/07/03 02:54:56;;;;;;;;;;;;;;;17.14;69.32;99927.69;4936584;29;19926;-72
2022/07/03 02:57:24;;;;;;;;;;;;;;;17.13;69.33;99915.66;4936233;29;20399;-73
2022/07/03 02:59:58;;;;;;;;;;;;;;;17.19;68.90;99909.53;4936742;29;20373;-72
2022/07/03 03:02:37;;;;;;;;;;;;;;;17.18;68.72;99913.81;4936530;29;20017;-72
2022/07/03 03:05:08;;;;;;;;;;;;;;;17.09;68.76;99908.88;4936565;29;19922;-72
2022/07/03 03:07:42;;;;;;;;;;;;;;;17.02;69.21;99912.50;4936362;29;20436;-72
2022/07/03 03:10:13;;;;;;;;;;;;;;;16.97;69.39;99914.31;4936501;29;20013;-71
2022/07/03 03:12:42;;;;;;;;;;;;;;;17.04;69.50;99915.03;4936437;29;19922;-71
2022/07/03 03:15:13;;;;;;;;;;;;;;;17.12;69.26;99908.81;4936319;29;19929;-72
2022/07/03 03:17:43;;;;;;;;;;;;;;;17.15;69.47;99907.91;4936335;29;19930;-72
2022/07/03 03:20:15;;;;;;;;;;;;;;;17.21;69.45;99903.44;4936346;29;20017;-72
2022/07/03 03:22:56;;;;;;;;;;;;;;;17.23;69.53;99900.81;4937404;29;19929;-72
2022/07/03 03:25:25;;;;;;;;;;;;;;;17.02;69.82;99897.03;4939958;29;19922;-71
2022/07/03 03:27:53;;;;;;;;;;;;;;;16.89;70.55;99905.94;4939946;29;19923;-72
2022/07/03 03:30:23;;;;;;;;;;;;;;;16.94;71.11;99906.66;4939786;29;19938;-72
2022/07/03 03:32:52;;;;;;;;;;;;;;;16.98;71.17;99912.59;4941139;29;19982;-71
2022/07/03 03:35:21;;;;;;;;;;;;;;;16.94;71.39;99906.66;4940054;29;20281;-72
2022/07/03 03:37:50;;;;;;;;;;;;;;;17.06;71.55;99906.38;4939883;29;19978;-71
2022/07/03 03:40:18;;;;;;;;;;;;;;;17.14;71.12;99901.88;4939515;29;19922;-72
2022/07/03 03:42:47;;;;;;;;;;;;;;;17.26;70.88;99899.03;4939569;29;19922;-72
2022/07/03 03:45:15;;;;;;;;;;;;;;;17.39;70.43;99908.16;4939552;29;19926;-73
2022/07/03 03:47:45;;;;;;;;;;;;;;;17.49;70.12;99907.94;4939356;29;19973;-72
2022/07/03 03:50:14;;;;;;;;;;;;;;;17.56;69.77;99904.34;4939933;29;19922;-73
2022/07/03 03:52:43;;;;;;;;;;;;;;;17.62;69.54;99905.03;4939716;29;19922;-72
2022/07/03 03:55:12;;;;;;;;;;;;;;;17.65;69.41;99898.94;4940010;29;20313;-72
2022/07/03 03:57:41;;;;;;;;;;;;;;;17.68;69.28;99904.03;4939044;29;19923;-73
2022/07/03 04:00:10;;;;;;;;;;;;;;;17.72;69.22;99905.63;4939463;29;19923;-73
2022/07/03 04:02:41;;;;;;;;;;;;;;;17.76;68.94;99909.81;4939235;29;19923;-72
2022/07/03 04:05:11;;;;;;;;;;;;;;;17.78;68.91;99906.31;4939175;29;19957;-72
2022/07/03 04:07:40;;;;;;;;;;;;;;;17.88;68.68;99906.91;4939742;29;19966;-72
2022/07/03 04:10:09;;;;;;;;;;;;;;;17.91;68.68;99902.53;4939000;29;19922;-72
2022/07/03 04:12:38;;;;;;;;;;;;;;;17.91;68.51;99907.69;4939024;29;20369;-72
2022/07/03 04:15:07;;;;;;;;;;;;;;;17.82;69.10;99909.69;4938967;29;19926;-72
2022/07/03 04:17:35;;;;;;;;;;;;;;;17.87;68.96;99911.25;4922231;29;19966;-72
2022/07/03 04:20:04;;;;;;;;;;;;;;;17.95;68.82;99916.19;4939063;29;19923;-72
2022/07/03 04:22:34;;;;;;;;;;;;;;;18.05;68.73;99918.50;4939009;29;19923;-72
2022/07/03 04:25:04;;;;;;;;;;;;;;;18.14;68.50;99921.72;4938814;29;19922;-72
2022/07/03 04:27:33;;;;;;;;;;;;;;;18.22;68.20;99932.69;4938750;29;20010;-71
2022/07/03 04:30:22;;;;;;;;;;;;;;;18.32;68.12;99932.41;4938999;29;20029;-73
2022/07/03 04:32:50;;;;;;;;;;;;;;;18.38;67.91;99927.03;4938546;29;19923;-71
2022/07/03 04:35:19;;;;;;;;;;;;;;;18.47;67.78;99919.06;4938601;29;19923;-72
2022/07/03 04:37:48;;;;;;;;;;;;;;;18.57;67.86;99920.47;4938908;29;20448;-72
2022/07/03 04:40:19;;;;;;;;;;;;;;;18.73;67.51;99920.88;4938837;29;20261;-72
2022/07/03 04:42:47;;;;;;;;;;;;;;;18.82;67.14;99919.75;4938616;29;19922;-72
2022/07/03 04:45:16;;;;;;;;;;;;;;;18.92;67.22;99909.09;4938749;29;19969;-72
2022/07/03 04:47:45;;;;;;;;;;;;;;;19.04;67.22;99915.63;4938324;29;19923;-71
2022/07/03 04:50:13;;;;;;;;;;;;;;;19.17;66.99;99911.75;4938591;29;20304;-73
2022/07/03 04:52:42;;;;;;;;;;;;;;;19.27;66.75;99902.78;4938334;29;20402;-72
2022/07/03 04:55:12;;;;;;;;;;;;;;;19.41;66.53;99908.41;4938588;29;19923;-75
2022/07/03 04:57:42;;;;;;;;;;;;;;;19.54;66.62;99906.25;4938362;29;20373;-73
2022/07/03 05:00:11;;;;;;;;;;;;;;;19.69;66.73;99906.59;4938485;29;19957;-72
2022/07/03 05:02:39;;;;;;;;;;;;;;;19.79;66.48;99910.56;4938102;29;19923;-72
2022/07/03 05:05:08;;;;;;;;;;;;;;;19.88;66.28;99907.63;4938659;29;20273;-73
2022/07/03 05:07:37;;;;;;;;;;;;;;;20.05;66.27;99910.50;4938178;29;19973;-73
2022/07/03 05:10:06;;;;;;;;;;;;;;;20.10;66.08;99917.25;4938282;29;19930;-72
2022/07/03 05:12:34;;;;;;;;;;;;;;;20.15;66.01;99920.53;4937954;29;19929;-72
2022/07/03 05:15:10;;;;;;;;;;;;;;;20.28;65.69;99912.25;4937936;29;19929;-73
2022/07/03 05:17:39;;;;;;;;;;;;;;;20.38;65.62;99907.59;4937864;29;19929;-72
2022/07/03 05:22:48;;;;;;;;;;;;;;;20.52;65.06;99919.16;4937955;29;20277;-72
2022/07/03 05:25:17;;;;;;;;;;;;;;;20.60;65.03;99924.06;4938018;29;20432;-73
2022/07/03 05:27:46;;;;;;;;;;;;;;;20.78;64.84;99917.31;4937668;29;19923;-73
2022/07/03 05:30:16;;;;;;;;;;;;;;;20.78;64.24;99915.56;4920932;29;19950;-73
2022/07/03 05:32:45;;;;;;;;;;;;;;;20.81;64.24;99923.22;4937567;29;19929;-72
2022/07/03 05:35:13;;;;;;;;;;;;;;;20.89;64.23;99918.59;4937877;29;19923;-73
2022/07/03 05:37:42;;;;;;;;;;;;;;;20.97;64.18;99924.31;4937503;29;19922;-73
2022/07/03 05:40:11;;;;;;;;;;;;;;;21.03;63.86;99925.84;4937405;29;19954;-73
2022/07/03 05:42:40;;;;;;;;;;;;;;;21.12;63.81;99928.94;4937274;29;19923;-73
2022/07/03 05:45:09;;;;;;;;;;;;;;;21.22;63.74;99924.22;4936576;29;19927;-73
2022/07/03 05:47:39;;;;;;;;;;;;;;;21.40;63.52;99922.66;4937237;29;19926;-73
2022/07/03 05:50:09;;;;;;;;;;;;;;;21.54;63.15;99931.56;4937260;29;20026;-72
2022/07/03 05:52:38;;;;;;;;;;;;;;;21.64;62.73;99930.28;4937193;29;19931;-72
2022/07/03 05:55:06;;;;;;;;;;;;;;;21.70;62.53;99931.75;4937434;29;19929;-73
2022/07/03 05:57:35;;;;;;;;;;;;;;;21.78;62.37;99929.69;4936908;29;19922;-73
2022/07/03 06:00:05;;;;;;;;;;;;;;;21.88;62.20;99925.84;4920337;29;20092;-73
2022/07/03 06:02:33;;;;;;;;;;;;;;;22.00;62.16;99925.31;4937356;29;19923;-73
2022/07/03 06:05:03;;;;;;;;;;;;;;;22.13;62.01;99926.44;4937020;29;19966;-73
2022/07/03 06:07:32;;;;;;;;;;;;;;;22.26;61.90;99919.81;4936887;29;19934;-73
2022/07/03 06:10:00;;;;;;;;;;;;;;;22.40;61.37;99922.63;4937580;29;19922;-72
2022/07/03 06:12:29;;;;;;;;;;;;;;;22.49;61.16;99923.97;4937265;29;19930;-73
2022/07/03 06:14:57;;;;;;;;;;;;;;;22.51;60.96;99922.97;4937204;29;20333;-72
2022/07/03 06:17:30;;;;;;;;;;;;;;;22.59;61.09;99920.88;4920249;29;20325;-72
2022/07/03 06:19:58;;;;;;;;;;;;;;;22.66;60.81;99917.09;4936754;29;19931;-73
2022/07/03 06:22:30;;;;;;;;;;;;;;;22.83;60.65;99918.94;4937513;29;19934;-73
2022/07/03 06:24:59;;;;;;;;;;;;;;;23.02;60.62;99918.88;4936989;29;20282;-73
2022/07/03 06:27:28;;;;;;;;;;;;;;;23.09;60.31;99913.31;4936747;29;19926;-73
2022/07/03 06:29:56;;;;;;;;;;;;;;;23.27;60.19;99914.19;4937041;29;19946;-73
2022/07/03 06:32:25;;;;;;;;;;;;;;;23.36;59.99;99913.78;4904122;29;19922;-73
2022/07/03 06:34:54;;;;;;;;;;;;;;;23.44;59.11;99906.44;4936992;29;19930;-73
2022/07/03 06:37:23;;;;;;;;;;;;;;;23.44;58.91;99911.66;4936560;29;20013;-73
2022/07/03 06:39:53;;;;;;;;;;;;;;;23.56;58.77;99910.19;4936953;29;19994;-73
2022/07/03 06:42:21;;;;;;;;;;;;;;;23.69;58.66;99909.47;4936755;29;19970;-73
2022/07/03 06:44:51;;;;;;;;;;;;;;;23.88;58.56;99915.44;4919510;29;19923;-72
2022/07/03 06:47:20;;;;;;;;;;;;;;;23.85;58.00;99912.16;4936377;29;20420;-73
2022/07/03 06:49:48;;;;;;;;;;;;;;;23.89;57.73;99911.06;4936790;29;19997;-72
2022/07/03 06:52:17;;;;;;;;;;;;;;;23.97;58.07;99917.56;4936501;29;19978;-72
2022/07/03 06:54:46;;;;;;;;;;;;;;;24.16;57.93;99911.44;4936993;29;20348;-72
2022/07/03 06:57:16;;;;;;;;;;;;;;;24.24;57.41;99909.25;4938212;29;19922;-72
2022/07/03 06:59:44;;;;;;;;;;;;;;;24.33;57.01;99914.84;4940449;29;19946;-71
2022/07/03 07:02:13;;;;;;;;;;;;;;;24.40;56.61;99910.16;4940136;29;19922;-72
2022/07/03 07:04:42;;;;;;;;;;;;;;;24.47;56.24;99914.13;4940066;29;20424;-72
2022/07/03 07:07:10;;;;;;;;;;;;;;;24.52;56.67;99907.69;4940089;29;19923;-72
2022/07/03 07:09:39;;;;;;;;;;;;;;;24.51;56.47;99907.78;4940163;29;19930;-72
2022/07/03 07:12:08;;;;;;;;;;;;;;;24.63;56.61;99900.16;4939944;29;19945;-73
2022/07/03 07:14:38;;;;;;;;;;;;;;;24.87;56.07;99902.34;4940401;29;19923;-72
2022/07/03 07:17:07;;;;;;;;;;;;;;;25.03;55.71;99898.78;4939981;29;19927;-72
2022/07/03 07:19:36;;;;;;;;;;;;;;;25.01;55.43;99892.81;4940486;29;19970;-71
2022/07/03 07:22:05;;;;;;;;;;;;;;;24.99;55.20;99884.22;4940466;29;20265;-71
2022/07/03 07:24:33;;;;;;;;;;;;;;;25.02;55.18;99878.84;4940094;29;19945;-72
2022/07/03 07:27:02;;;;;;;;;;;;;;;25.12;54.92;99881.78;4939725;29;19923;-72
2022/07/03 07:29:31;;;;;;;;;;;;;;;25.18;54.86;99884.03;4939953;29;20361;-72
2022/07/03 07:32:01;;;;;;;;;;;;;;;25.16;54.74;99881.50;4940022;29;20104;-72
2022/07/03 07:34:29;;;;;;;;;;;;;;;25.23;54.70;99872.38;4940066;29;19926;-72
2022/07/03 07:36:58;;;;;;;;;;;;;;;25.25;54.29;99873.13;4939967;29;19923;-71
2022/07/03 07:39:26;;;;;;;;;;;;;;;25.31;54.49;99875.38;4939906;29;20282;-72
2022/07/03 07:41:55;;;;;;;;;;;;;;;25.48;54.49;99871.00;4939848;29;20420;-72
2022/07/03 07:44:24;;;;;;;;;;;;;;;25.57;54.06;99870.44;4939475;29;20296;-71
2022/07/03 07:46:52;;;;;;;;;;;;;;;25.64;53.75;99874.38;4939772;29;19937;-71
2022/07/03 07:49:22;;;;;;;;;;;;;;;25.65;52.90;99873.47;4939338;29;20400;-72
2022/07/03 07:51:51;;;;;;;;;;;;;;;25.58;52.92;99874.75;4939397;29;19969;-70
2022/07/03 07:54:20;;;;;;;;;;;;;;;25.71;53.08;99871.31;4922629;29;19926;-70
2022/07/03 07:56:49;;;;;;;;;;;;;;;25.71;52.33;99873.94;4939116;29;19973;-71
2022/07/03 07:59:17;;;;;;;;;;;;;;;25.83;52.29;99880.19;4939599;29;19922;-70
2022/07/03 08:07:04;;;;;;;;;;;;;;;26.15;51.23;99881.75;4939662;29;20369;-71
2022/07/03 08:09:33;;;;;;;;;;;;;;;26.30;50.89;99878.16;4938464;29;20428;-71
2022/07/03 08:12:02;;;;;;;;;;;;;;;26.42;50.28;99879.16;4939093;29;19957;-72
2022/07/03 08:14:30;;;;;;;;;;;;;;;26.66;49.65;99880.25;4939370;29;19927;-70
2022/07/03 08:16:59;;;;;;;;;;;;;;;26.67;47.19;99876.69;4939182;29;20369;-71
2022/07/03 08:19:29;;;;;;;;;;;;;;;26.66;46.09;99879.44;4938910;29;20408;-70
2022/07/03 08:21:57;;;;;;;;;;;;;;;26.67;46.13;99871.47;4938951;29;19923;-72
2022/07/03 08:24:26;;;;;;;;;;;;;;;26.73;46.78;99878.09;4939152;29;19930;-72
2022/07/03 08:26:55;;;;;;;;;;;;;;;26.94;47.26;99874.13;4938810;29;19923;-70
2022/07/03 08:29:23;;;;;;;;;;;;;;;27.08;46.16;99874.06;4938626;29;20369;-71
2022/07/03 08:31:52;;;;;;;;;;;;;;;27.01;44.41;99864.94;4939073;29;19923;-71
2022/07/03 08:34:20;;;;;;;;;;;;;;;27.01;43.72;99875.41;4938514;29;19927;-72
2022/07/03 08:36:50;;;;;;;;;;;;;;;27.18;43.97;99872.53;4938893;29;19945;-71
2022/07/03 08:39:19;;;;;;;;;;;;;;;27.29;43.96;99870.03;4938637;29;19923;-71
2022/07/03 08:41:49;;;;;;;;;;;;;;;27.53;44.38;99860.56;4938134;29;20404;-71
2022/07/03 08:44:19;;;;;;;;;;;;;;;27.78;44.68;99878.94;4934588;29;19977;-72
2022/07/03 08:46:50;;;;;;;;;;;;;;;27.88;43.46;99866.84;4937029;29;20317;-71
2022/07/03 08:49:19;;;;;;;;;;;;;;;27.84;43.40;99868.03;4919375;29;20005;-71
2022/07/03 08:51:48;;;;;;;;;;;;;;;27.98;43.32;99863.63;4902304;29;20385;-71
2022/07/03 08:54:18;;;;;;;;;;;;;;;28.01;42.70;99863.41;4919523;29;19935;-69
2022/07/03 08:56:48;;;;;;;;;;;;;;;28.13;41.86;99866.03;4919673;29;19934;-70
2022/07/03 08:59:18;;;;;;;;;;;;;;;28.28;41.21;99861.50;4933613;29;19993;-72
2022/07/03 09:01:47;;;;;;;;;;;;;;;28.54;42.11;99853.44;4957450;29;19923;-71
2022/07/03 09:04:17;;;;;;;;;;;;;;;28.93;41.84;99855.00;4957425;29;19929;-71
2022/07/03 09:06:45;;;;;;;;;;;;;;;29.29;41.45;99851.47;4957115;29;19928;-72
2022/07/03 09:09:14;;;;;;;;;;;;;;;29.45;41.05;99851.97;4952951;29;19922;-71
2022/07/03 09:11:45;;;;;;;;;;;;;;;29.58;40.72;99846.63;4937794;29;19923;-70
2022/07/03 09:14:14;;;;;;;;;;;;;;;29.73;40.59;99850.72;4937732;29;20017;-71
2022/07/03 09:16:43;;;;;;;;;;;;;;;29.73;40.18;99851.53;4937727;29;19922;-71
2022/07/03 09:19:12;;;;;;;;;;;;;;;29.82;40.08;99844.78;4937435;29;19933;-71
2022/07/03 09:21:41;;;;;;;;;;;;;;;29.80;39.54;99841.44;4937082;29;19922;-71
2022/07/03 09:24:11;;;;;;;;;;;;;;;29.68;39.76;99842.34;4937916;29;19922;-71
2022/07/03 09:26:52;;;;;;;;;;;;;;;29.46;39.52;99837.03;4937572;29;19923;-69
2022/07/03 09:29:21;;;;;;;;;;;;;;;29.47;39.71;99846.59;4937429;29;20341;-71
2022/07/03 09:31:54;;;;;;;;;;;;;;;29.44;39.85;99838.94;4937344;29;19922;-71
2022/07/03 09:34:24;;;;;;;;;;;;;;;29.30;40.06;99837.34;4937514;29;19923;-69
2022/07/03 09:36:53;;;;;;;;;;;;;;;29.11;39.80;99840.47;4937697;29;20036;-70
2022/07/03 09:39:22;;;;;;;;;;;;;;;28.98;39.54;99847.63;4937939;29;19980;-69
2022/07/03 09:41:53;;;;;;;;;;;;;;;28.72;39.27;99846.06;4937392;29;19951;-72
2022/07/03 09:44:34;;;;;;;;;;;;;;;28.66;39.95;99840.41;4920413;29;19923;-70
2022/07/03 09:47:06;;;;;;;;;;;;;;;28.70;40.13;99837.44;4937327;29;19923;-70
2022/07/03 09:49:45;;;;;;;;;;;;;;;28.67;39.88;99829.78;4937225;29;19922;-72
2022/07/03 09:52:26;;;;;;;;;;;;;;;28.97;40.17;99830.16;4937240;29;20436;-70
2022/07/03 09:54:55;;;;;;;;;;;;;;;29.31;40.13;99827.66;4937180;29;20026;-72
2022/07/03 09:57:27;;;;;;;;;;;;;;;29.42;39.38;99830.34;4936966;29;19965;-70
2022/07/03 10:00:17;;;;;;;;;;;;;;;29.45;39.45;99830.09;4936940;29;19930;-68
2022/07/03 10:02:53;;;;;;;;;;;;;;;29.54;39.51;99821.47;4933043;29;19930;-70
2022/07/03 10:05:22;;;;;;;;;;;;;;;29.75;39.30;99817.22;4936928;29;19973;-70
2022/07/03 10:07:51;;;;;;;;;;;;;;;29.88;39.14;99823.22;4936863;29;19922;-71
2022/07/03 10:10:21;;;;;;;;;;;;;;;29.97;39.37;99819.88;4936972;29;20021;-71
2022/07/03 10:12:52;;;;;;;;;;;;;;;30.11;38.96;99819.66;4937100;29;19968;-72
2022/07/03 10:15:21;;;;;;;;;;;;;;;30.17;38.59;99824.41;4937130;29;19930;-70
2022/07/03 10:17:50;;;;;;;;;;;;;;;29.83;38.22;99814.84;4937163;29;19923;-71
2022/07/03 10:20:24;;;;;;;;;;;;;;;29.77;38.60;99823.25;4936478;29;19923;-71
2022/07/03 10:22:52;;;;;;;;;;;;;;;29.79;38.76;99823.94;4936663;29;19926;-72
2022/07/03 10:25:21;;;;;;;;;;;;;;;29.85;38.80;99815.56;4936586;29;19927;-71
2022/07/03 10:27:51;;;;;;;;;;;;;;;29.91;38.63;99812.47;4936632;29;19954;-71
2022/07/03 10:30:20;;;;;;;;;;;;;;;29.93;38.42;99814.97;4937043;29;20281;-71
2022/07/03 10:32:50;;;;;;;;;;;;;;;29.90;38.46;99804.69;4935963;29;19939;-70
2022/07/03 10:35:21;;;;;;;;;;;;;;;29.90;38.70;99802.06;4936374;29;19922;-70
2022/07/03 10:38:00;;;;;;;;;;;;;;;29.97;38.75;99806.72;4936918;29;20357;-71
2022/07/03 10:46:14;;;;;;;;;;;;;;;30.06;38.02;99797.25;4936224;29;19971;-70
2022/07/03 10:48:54;;;;;;;;;;;;;;;30.10;38.39;99789.00;4932146;29;19926;-69
2022/07/03 10:51:23;;;;;;;;;;;;;;;30.12;39.03;99805.50;4936205;29;19929;-69
2022/07/03 10:54:12;;;;;;;;;;;;;;;30.05;39.15;99787.66;4937024;29;20322;-69
2022/07/03 10:56:55;;;;;;;;;;;;;;;30.16;39.09;99780.59;4936587;29;19923;-69
2022/07/03 10:59:45;;;;;;;;;;;;;;;30.31;39.26;99779.38;4935933;29;20021;-68
2022/07/03 11:02:22;;;;;;;;;;;;;;;30.62;39.17;99766.38;4919414;29;19922;-68
2022/07/03 11:05:04;;;;;;;;;;;;;;;30.83;38.44;99769.88;4937161;29;20025;-68
2022/07/03 11:08:04;;;;;;;;;;;;;;;30.92;37.71;99758.59;4936570;29;19923;-70
2022/07/03 11:10:35;;;;;;;;;;;;;;;31.21;37.90;99772.81;4936165;29;19934;-69
2022/07/03 11:13:05;;;;;;;;;;;;;;;31.17;36.59;99768.75;4936260;29;20385;-69
2022/07/03 11:15:35;;;;;;;;;;;;;;;31.30;37.00;99768.56;4936633;29;20369;-70
2022/07/03 11:18:15;;;;;;;;;;;;;;;31.37;37.02;99764.44;4936165;29;19927;-72
2022/07/03 11:20:53;;;;;;;;;;;;;;;31.42;36.42;99765.72;4936495;29;19933;-71
2022/07/03 11:23:28;;;;;;;;;;;;;;;31.31;35.93;99764.97;4919764;29;19922;-68
2022/07/03 11:25:58;;;;;;;;;;;;;;;31.20;35.97;99757.94;4935974;29;19923;-70
2022/07/03 11:28:37;;;;;;;;;;;;;;;31.36;36.32;99758.31;4936457;29;19970;-70
2022/07/03 11:31:17;;;;;;;;;;;;;;;31.32;36.05;99754.28;4935798;29;19923;-69
2022/07/03 11:33:48;;;;;;;;;;;;;;;31.41;36.41;99761.41;4935791;29;20433;-70
2022/07/03 11:36:28;;;;;;;;;;;;;;;31.56;36.64;99760.13;4919377;29;19929;-72
2022/07/03 11:39:07;;;;;;;;;;;;;;;31.78;36.24;99751.19;4949419;29;20300;-70
2022/07/03 11:41:46;;;;;;;;;;;;;;;31.83;35.36;99751.63;4945510;29;20017;-69
2022/07/03 11:44:16;;;;;;;;;;;;;;;31.80;35.08;99752.72;4937882;29;20024;-72
2022/07/03 11:46:47;;;;;;;;;;;;;;;31.85;34.77;99740.91;4939339;29;20010;-69
2022/07/03 11:49:18;;;;;;;;;;;;;;;32.10;36.34;99748.41;4939307;29;19923;-71
2022/07/03 11:51:57;;;;;;;;;;;;;;;32.25;35.97;99747.84;4939277;29;20009;-72
2022/07/03 11:54:26;;;;;;;;;;;;;;;32.17;35.37;99733.66;4939616;29;19922;-70
2022/07/03 11:56:55;;;;;;;;;;;;;;;32.07;34.41;99732.81;4938818;29;19930;-70
2022/07/03 11:59:23;;;;;;;;;;;;;;;31.96;34.12;99727.63;4939222;29;19926;-68
2022/07/03 12:01:52;;;;;;;;;;;;;;;32.06;34.79;99731.97;4939266;29;20431;-70
2022/07/03 12:04:22;;;;;;;;;;;;;;;32.30;35.31;99723.66;4939403;29;19926;-70
2022/07/03 12:06:52;;;;;;;;;;;;;;;32.18;34.24;99714.19;4939532;29;19930;-69
2022/07/03 12:09:21;;;;;;;;;;;;;;;32.01;34.07;99722.78;4939042;29;19926;-70
2022/07/03 12:11:57;;;;;;;;;;;;;;;32.08;34.11;99703.59;4938989;29;19996;-70
2022/07/03 12:14:37;;;;;;;;;;;;;;;32.02;33.99;99705.97;4939038;29;19922;-70
2022/07/03 12:17:06;;;;;;;;;;;;;;;31.93;34.02;99704.94;4938914;29;19965;-69
2022/07/03 12:19:37;;;;;;;;;;;;;;;31.95;34.34;99699.53;4939089;29;19970;-70
2022/07/03 12:22:05;;;;;;;;;;;;;;;31.85;34.20;99701.31;4938942;29;19929;-69
2022/07/03 12:24:34;;;;;;;;;;;;;;;31.92;35.07;99681.28;4939151;29;19927;-69
2022/07/03 12:27:06;;;;;;;;;;;;;;;31.94;34.60;99676.75;4938711;29;20072;-70
2022/07/03 12:29:35;;;;;;;;;;;;;;;32.10;34.17;99675.25;4938999;29;19962;-69
2022/07/03 12:32:09;;;;;;;;;;;;;;;32.27;34.87;99681.66;4939586;29;19969;-69
2022/07/03 12:34:39;;;;;;;;;;;;;;;32.20;33.72;99675.28;4938692;29;19922;-69
2022/07/03 12:37:08;;;;;;;;;;;;;;;32.11;33.49;99678.72;4938676;29;19970;-68
2022/07/03 12:39:44;;;;;;;;;;;;;;;32.09;33.58;99678.03;4938721;29;20361;-70
2022/07/03 12:42:14;;;;;;;;;;;;;;;32.14;34.55;99666.06;4938935;29;20013;-69
2022/07/03 12:44:43;;;;;;;;;;;;;;;32.34;35.30;99672.22;4938420;29;19991;-69
2022/07/03 12:47:17;;;;;;;;;;;;;;;32.49;34.98;99670.78;4938724;29;19955;-69
2022/07/03 12:49:47;;;;;;;;;;;;;;;32.64;34.42;99673.88;4938746;29;19923;-70
2022/07/03 12:52:15;;;;;;;;;;;;;;;32.67;34.40;99663.03;4938474;29;19922;-70
2022/07/03 12:54:44;;;;;;;;;;;;;;;32.65;34.50;99671.09;4938050;29;19969;-70
2022/07/03 13:00:01;;;;;;;;;;;;;;;32.86;34.82;99657.69;4937762;29;20404;-71
2022/07/03 13:02:30;;;;;;;;;;;;;;;33.00;34.78;99658.06;4938376;29;19993;-71
2022/07/03 13:05:01;;;;;;;;;;;;;;;33.06;34.98;99657.56;4936640;29;19922;-71
2022/07/03 13:07:30;;;;;;;;;;;;;;;32.95;34.04;99652.38;4937604;29;19923;-72
2022/07/03 13:10:00;;;;;;;;;;;;;;;32.93;33.96;99643.75;4937693;29;19946;-72
2022/07/03 13:12:29;;;;;;;;;;;;;;;32.78;33.60;99644.34;4937893;29;20373;-71
2022/07/03 13:14:58;;;;;;;;;;;;;;;32.94;34.57;99647.25;4936023;29;19927;-72
2022/07/03 13:17:41;;;;;;;;;;;;;;;32.95;34.15;99652.38;4918771;29;20437;-71
2022/07/03 13:20:11;;;;;;;;;;;;;;;32.91;33.63;99642.22;4918942;29;19923;-72
2022/07/03 13:22:39;;;;;;;;;;;;;;;33.04;34.50;99638.31;4918546;29;19930;-72